sensor_id;sensor_type;location;lat;lon;timestamp;P1;durP1;ratioP1;P2;durP2;ratioP2
59880;SDS011;45751;51.380;10.326;2022-08-27T00:00:46;21.38;;;11.48;;
59880;SDS011;45751;51.380;10.326;2022-08-27T00:03:14;23.02;;;12.10;;
59880;SDS011;45751;51.380;10.326;2022-08-27T00:05:41;23.15;;;11.77;;
59880;SDS011;45751;51.380;10.326;2022-08-27T00:08:09;22.65;;;11.30;;
59880;SDS011;45751;51.380;10.326;2022-08-27T00:10:39;20.92;;;10.32;;
59880;SDS011;45751;51.380;10.326;2022-08-27T00:13:07;19.35;;;9.05;;
59880;SDS011;45751;51.380;10.326;2022-08-27T00:15:34;21.05;;;8.43;;
59880;SDS011;45751;51.380;10.326;2022-08-27T00:18:01;17.20;;;8.13;;
59880;SDS011;45751;51.380;10.326;2022-08-27T00:20:28;15.73;;;7.85;;
59880;SDS011;45751;51.380;10.326;2022-08-27T00:22:55;15.77;;;6.88;;
59880;SDS011;45751;51.380;10.326;2022-08-27T00:25:22;16.02;;;7.45;;
59880;SDS011;45751;51.380;10.326;2022-08-27T00:27:49;17.95;;;7.35;;
59880;SDS011;45751;51.380;10.326;2022-08-27T00:30:18;17.02;;;7.13;;
59880;SDS011;45751;51.380;10.326;2022-08-27T00:35:15;13.40;;;6.18;;
59880;SDS011;45751;51.380;10.326;2022-08-27T00:37:42;13.25;;;6.10;;
59880;SDS011;45751;51.380;10.326;2022-08-27T00:40:12;13.30;;;6.57;;
59880;SDS011;45751;51.380;10.326;2022-08-27T00:42:42;13.38;;;6.53;;
59880;SDS011;45751;51.380;10.326;2022-08-27T00:45:12;12.65;;;6.10;;
59880;SDS011;45751;51.380;10.326;2022-08-27T00:47:53;13.45;;;6.45;;
59880;SDS011;45751;51.380;10.326;2022-08-27T00:50:36;15.27;;;6.97;;
59880;SDS011;45751;51.380;10.326;2022-08-27T00:53:09;13.38;;;6.25;;
59880;SDS011;45751;51.380;10.326;2022-08-27T00:55:43;12.88;;;6.72;;
59880;SDS011;45751;51.380;10.326;2022-08-27T00:58:25;14.75;;;6.50;;
59880;SDS011;45751;51.380;10.326;2022-08-27T01:00:54;14.60;;;6.55;;
59880;SDS011;45751;51.380;10.326;2022-08-27T01:03:22;12.85;;;6.65;;
59880;SDS011;45751;51.380;10.326;2022-08-27T01:05:52;15.82;;;6.78;;
59880;SDS011;45751;51.380;10.326;2022-08-27T01:08:23;12.93;;;7.15;;
59880;SDS011;45751;51.380;10.326;2022-08-27T01:10:51;15.33;;;6.80;;
59880;SDS011;45751;51.380;10.326;2022-08-27T01:16:10;15.18;;;6.75;;
59880;SDS011;45751;51.380;10.326;2022-08-27T01:18:42;14.00;;;6.70;;
59880;SDS011;45751;51.380;10.326;2022-08-27T01:23:54;15.55;;;6.55;;
59880;SDS011;45751;51.380;10.326;2022-08-27T01:26:32;17.90;;;8.27;;
59880;SDS011;45751;51.380;10.326;2022-08-27T01:28:59;17.35;;;7.55;;
59880;SDS011;45751;51.380;10.326;2022-08-27T01:31:26;18.25;;;8.20;;
59880;SDS011;45751;51.380;10.326;2022-08-27T01:33:59;20.42;;;9.48;;
59880;SDS011;45751;51.380;10.326;2022-08-27T01:36:28;18.40;;;9.05;;
59880;SDS011;45751;51.380;10.326;2022-08-27T01:38:55;22.13;;;10.75;;
59880;SDS011;45751;51.380;10.326;2022-08-27T01:41:23;20.33;;;9.52;;
59880;SDS011;45751;51.380;10.326;2022-08-27T01:43:51;19.95;;;10.75;;
59880;SDS011;45751;51.380;10.326;2022-08-27T01:46:22;23.08;;;10.05;;
59880;SDS011;45751;51.380;10.326;2022-08-27T01:48:51;25.27;;;11.18;;
59880;SDS011;45751;51.380;10.326;2022-08-27T01:51:19;21.92;;;11.38;;
59880;SDS011;45751;51.380;10.326;2022-08-27T01:53:46;23.38;;;10.95;;
59880;SDS011;45751;51.380;10.326;2022-08-27T01:56:13;19.63;;;10.63;;
59880;SDS011;45751;51.380;10.326;2022-08-27T01:58:41;25.00;;;12.63;;
59880;SDS011;45751;51.380;10.326;2022-08-27T02:01:10;30.02;;;12.60;;
59880;SDS011;45751;51.380;10.326;2022-08-27T02:03:39;24.70;;;12.07;;
59880;SDS011;45751;51.380;10.326;2022-08-27T02:06:08;22.15;;;12.73;;
59880;SDS011;45751;51.380;10.326;2022-08-27T02:08:37;23.92;;;13.20;;
59880;SDS011;45751;51.380;10.326;2022-08-27T02:11:04;32.58;;;13.02;;
59880;SDS011;45751;51.380;10.326;2022-08-27T02:13:33;24.50;;;13.32;;
59880;SDS011;45751;51.380;10.326;2022-08-27T02:16:01;25.17;;;13.13;;
59880;SDS011;45751;51.380;10.326;2022-08-27T02:18:28;25.88;;;12.63;;
59880;SDS011;45751;51.380;10.326;2022-08-27T02:20:55;23.80;;;12.80;;
59880;SDS011;45751;51.380;10.326;2022-08-27T02:23:21;24.00;;;12.80;;
59880;SDS011;45751;51.380;10.326;2022-08-27T02:25:48;27.58;;;13.18;;
59880;SDS011;45751;51.380;10.326;2022-08-27T02:28:17;26.00;;;14.25;;
59880;SDS011;45751;51.380;10.326;2022-08-27T02:30:44;31.58;;;14.70;;
59880;SDS011;45751;51.380;10.326;2022-08-27T02:33:11;31.05;;;14.13;;
59880;SDS011;45751;51.380;10.326;2022-08-27T02:35:38;33.15;;;15.75;;
59880;SDS011;45751;51.380;10.326;2022-08-27T02:38:08;29.45;;;15.13;;
59880;SDS011;45751;51.380;10.326;2022-08-27T02:40:38;29.17;;;15.63;;
59880;SDS011;45751;51.380;10.326;2022-08-27T02:43:05;35.25;;;16.17;;
59880;SDS011;45751;51.380;10.326;2022-08-27T02:45:32;34.75;;;16.88;;
59880;SDS011;45751;51.380;10.326;2022-08-27T02:48:00;32.95;;;15.50;;
59880;SDS011;45751;51.380;10.326;2022-08-27T02:50:27;37.38;;;15.60;;
59880;SDS011;45751;51.380;10.326;2022-08-27T02:52:55;37.08;;;17.38;;
59880;SDS011;45751;51.380;10.326;2022-08-27T02:55:23;30.05;;;15.70;;
59880;SDS011;45751;51.380;10.326;2022-08-27T02:57:49;31.35;;;15.77;;
59880;SDS011;45751;51.380;10.326;2022-08-27T03:00:17;29.25;;;15.50;;
59880;SDS011;45751;51.380;10.326;2022-08-27T03:02:46;35.22;;;15.30;;
59880;SDS011;45751;51.380;10.326;2022-08-27T03:05:14;31.77;;;15.23;;
59880;SDS011;45751;51.380;10.326;2022-08-27T03:07:42;31.63;;;15.60;;
59880;SDS011;45751;51.380;10.326;2022-08-27T03:10:11;36.33;;;16.95;;
59880;SDS011;45751;51.380;10.326;2022-08-27T03:12:39;31.23;;;15.82;;
59880;SDS011;45751;51.380;10.326;2022-08-27T03:15:07;30.73;;;15.05;;
59880;SDS011;45751;51.380;10.326;2022-08-27T03:17:36;36.20;;;16.38;;
59880;SDS011;45751;51.380;10.326;2022-08-27T03:20:22;30.05;;;14.77;;
59880;SDS011;45751;51.380;10.326;2022-08-27T03:22:50;29.30;;;14.18;;
59880;SDS011;45751;51.380;10.326;2022-08-27T03:25:17;31.83;;;14.85;;
59880;SDS011;45751;51.380;10.326;2022-08-27T03:27:45;29.90;;;13.68;;
59880;SDS011;45751;51.380;10.326;2022-08-27T03:30:13;30.08;;;13.85;;
59880;SDS011;45751;51.380;10.326;2022-08-27T03:32:42;29.85;;;13.15;;
59880;SDS011;45751;51.380;10.326;2022-08-27T03:35:10;29.08;;;12.75;;
59880;SDS011;45751;51.380;10.326;2022-08-27T03:37:37;27.70;;;12.32;;
59880;SDS011;45751;51.380;10.326;2022-08-27T03:40:05;25.15;;;11.57;;
59880;SDS011;45751;51.380;10.326;2022-08-27T03:42:33;20.23;;;11.27;;
59880;SDS011;45751;51.380;10.326;2022-08-27T03:45:01;25.50;;;11.68;;
59880;SDS011;45751;51.380;10.326;2022-08-27T03:47:28;23.65;;;10.98;;
59880;SDS011;45751;51.380;10.326;2022-08-27T03:49:55;25.98;;;12.32;;
59880;SDS011;45751;51.380;10.326;2022-08-27T03:52:22;26.65;;;12.05;;
59880;SDS011;45751;51.380;10.326;2022-08-27T03:54:49;25.75;;;11.85;;
59880;SDS011;45751;51.380;10.326;2022-08-27T03:57:16;25.92;;;11.50;;
59880;SDS011;45751;51.380;10.326;2022-08-27T03:59:43;29.92;;;13.07;;
59880;SDS011;45751;51.380;10.326;2022-08-27T04:02:10;25.65;;;11.77;;
59880;SDS011;45751;51.380;10.326;2022-08-27T04:04:40;28.00;;;13.55;;
59880;SDS011;45751;51.380;10.326;2022-08-27T04:07:07;25.00;;;12.73;;
59880;SDS011;45751;51.380;10.326;2022-08-27T04:09:35;29.45;;;13.02;;
59880;SDS011;45751;51.380;10.326;2022-08-27T04:12:02;31.08;;;12.82;;
59880;SDS011;45751;51.380;10.326;2022-08-27T04:14:29;24.52;;;11.48;;
59880;SDS011;45751;51.380;10.326;2022-08-27T04:16:56;21.80;;;10.88;;
59880;SDS011;45751;51.380;10.326;2022-08-27T04:19:24;22.90;;;10.15;;
59880;SDS011;45751;51.380;10.326;2022-08-27T04:21:59;25.77;;;10.63;;
59880;SDS011;45751;51.380;10.326;2022-08-27T04:24:28;27.20;;;11.15;;
59880;SDS011;45751;51.380;10.326;2022-08-27T04:26:56;26.08;;;11.15;;
59880;SDS011;45751;51.380;10.326;2022-08-27T04:29:24;20.88;;;10.65;;
59880;SDS011;45751;51.380;10.326;2022-08-27T04:31:52;22.83;;;9.93;;
59880;SDS011;45751;51.380;10.326;2022-08-27T04:34:19;18.17;;;8.60;;
59880;SDS011;45751;51.380;10.326;2022-08-27T04:36:47;23.42;;;9.90;;
59880;SDS011;45751;51.380;10.326;2022-08-27T04:39:14;21.15;;;10.00;;
59880;SDS011;45751;51.380;10.326;2022-08-27T04:41:42;20.70;;;10.07;;
59880;SDS011;45751;51.380;10.326;2022-08-27T04:44:09;21.42;;;9.27;;
59880;SDS011;45751;51.380;10.326;2022-08-27T04:46:38;19.20;;;8.93;;
59880;SDS011;45751;51.380;10.326;2022-08-27T04:49:07;17.98;;;8.88;;
59880;SDS011;45751;51.380;10.326;2022-08-27T04:51:40;23.05;;;9.70;;
59880;SDS011;45751;51.380;10.326;2022-08-27T04:54:08;22.08;;;10.57;;
59880;SDS011;45751;51.380;10.326;2022-08-27T04:56:36;25.60;;;10.60;;
59880;SDS011;45751;51.380;10.326;2022-08-27T04:59:04;20.95;;;9.82;;
59880;SDS011;45751;51.380;10.326;2022-08-27T05:01:33;23.70;;;11.32;;
59880;SDS011;45751;51.380;10.326;2022-08-27T05:04:00;24.55;;;11.38;;
59880;SDS011;45751;51.380;10.326;2022-08-27T05:06:28;23.25;;;10.85;;
59880;SDS011;45751;51.380;10.326;2022-08-27T05:08:55;26.20;;;11.30;;
59880;SDS011;45751;51.380;10.326;2022-08-27T05:11:22;23.40;;;10.23;;
59880;SDS011;45751;51.380;10.326;2022-08-27T05:13:52;19.73;;;8.60;;
59880;SDS011;45751;51.380;10.326;2022-08-27T05:16:20;22.65;;;8.98;;
59880;SDS011;45751;51.380;10.326;2022-08-27T05:18:49;18.30;;;8.35;;
59880;SDS011;45751;51.380;10.326;2022-08-27T05:21:18;19.92;;;9.00;;
59880;SDS011;45751;51.380;10.326;2022-08-27T05:23:47;20.25;;;9.60;;
59880;SDS011;45751;51.380;10.326;2022-08-27T05:26:14;21.25;;;9.68;;
59880;SDS011;45751;51.380;10.326;2022-08-27T05:28:41;18.95;;;8.77;;
59880;SDS011;45751;51.380;10.326;2022-08-27T05:31:10;19.80;;;9.77;;
59880;SDS011;45751;51.380;10.326;2022-08-27T05:33:38;20.08;;;9.20;;
59880;SDS011;45751;51.380;10.326;2022-08-27T05:36:07;18.60;;;8.88;;
59880;SDS011;45751;51.380;10.326;2022-08-27T05:38:40;19.17;;;8.45;;
59880;SDS011;45751;51.380;10.326;2022-08-27T05:41:09;16.33;;;7.65;;
59880;SDS011;45751;51.380;10.326;2022-08-27T05:43:40;19.83;;;8.45;;
59880;SDS011;45751;51.380;10.326;2022-08-27T05:46:15;19.42;;;8.27;;
59880;SDS011;45751;51.380;10.326;2022-08-27T05:48:43;18.92;;;9.00;;
59880;SDS011;45751;51.380;10.326;2022-08-27T05:51:21;21.33;;;8.65;;
59880;SDS011;45751;51.380;10.326;2022-08-27T05:53:55;21.17;;;8.90;;
59880;SDS011;45751;51.380;10.326;2022-08-27T05:56:24;21.88;;;8.82;;
59880;SDS011;45751;51.380;10.326;2022-08-27T05:58:52;22.25;;;8.48;;
59880;SDS011;45751;51.380;10.326;2022-08-27T06:01:38;23.95;;;8.95;;
59880;SDS011;45751;51.380;10.326;2022-08-27T06:04:13;19.95;;;8.38;;
59880;SDS011;45751;51.380;10.326;2022-08-27T06:06:43;19.33;;;9.02;;
59880;SDS011;45751;51.380;10.326;2022-08-27T06:09:11;22.25;;;9.15;;
59880;SDS011;45751;51.380;10.326;2022-08-27T06:11:40;20.27;;;8.45;;
59880;SDS011;45751;51.380;10.326;2022-08-27T06:14:07;20.70;;;9.30;;
59880;SDS011;45751;51.380;10.326;2022-08-27T06:16:36;19.83;;;9.02;;
59880;SDS011;45751;51.380;10.326;2022-08-27T06:19:04;21.08;;;8.93;;
59880;SDS011;45751;51.380;10.326;2022-08-27T06:21:32;25.30;;;10.55;;
59880;SDS011;45751;51.380;10.326;2022-08-27T06:23:59;22.75;;;9.50;;
59880;SDS011;45751;51.380;10.326;2022-08-27T06:26:26;21.58;;;9.77;;
59880;SDS011;45751;51.380;10.326;2022-08-27T06:28:53;23.90;;;10.57;;
59880;SDS011;45751;51.380;10.326;2022-08-27T06:31:24;23.70;;;9.95;;
59880;SDS011;45751;51.380;10.326;2022-08-27T06:33:53;25.02;;;10.20;;
59880;SDS011;45751;51.380;10.326;2022-08-27T06:36:28;22.33;;;9.15;;
59880;SDS011;45751;51.380;10.326;2022-08-27T06:38:56;21.70;;;9.52;;
59880;SDS011;45751;51.380;10.326;2022-08-27T06:41:23;24.70;;;9.82;;
59880;SDS011;45751;51.380;10.326;2022-08-27T06:43:52;24.80;;;8.55;;
59880;SDS011;45751;51.380;10.326;2022-08-27T06:46:22;19.30;;;7.85;;
59880;SDS011;45751;51.380;10.326;2022-08-27T06:48:51;20.67;;;8.60;;
59880;SDS011;45751;51.380;10.326;2022-08-27T06:51:23;19.63;;;8.32;;
59880;SDS011;45751;51.380;10.326;2022-08-27T06:53:56;17.50;;;7.97;;
59880;SDS011;45751;51.380;10.326;2022-08-27T06:56:25;20.13;;;7.95;;
59880;SDS011;45751;51.380;10.326;2022-08-27T06:58:52;19.67;;;7.20;;
59880;SDS011;45751;51.380;10.326;2022-08-27T07:01:25;18.63;;;7.63;;
59880;SDS011;45751;51.380;10.326;2022-08-27T07:03:56;16.92;;;7.50;;
59880;SDS011;45751;51.380;10.326;2022-08-27T07:06:25;19.77;;;8.40;;
59880;SDS011;45751;51.380;10.326;2022-08-27T07:08:55;17.65;;;7.32;;
59880;SDS011;45751;51.380;10.326;2022-08-27T07:11:25;20.42;;;8.48;;
59880;SDS011;45751;51.380;10.326;2022-08-27T07:13:54;25.40;;;9.18;;
59880;SDS011;45751;51.380;10.326;2022-08-27T07:16:22;21.55;;;7.60;;
59880;SDS011;45751;51.380;10.326;2022-08-27T07:18:51;17.05;;;7.90;;
59880;SDS011;45751;51.380;10.326;2022-08-27T07:21:20;15.98;;;7.55;;
59880;SDS011;45751;51.380;10.326;2022-08-27T07:23:48;18.90;;;7.88;;
59880;SDS011;45751;51.380;10.326;2022-08-27T07:26:16;14.35;;;6.07;;
59880;SDS011;45751;51.380;10.326;2022-08-27T07:28:45;14.27;;;6.22;;
59880;SDS011;45751;51.380;10.326;2022-08-27T07:31:16;14.80;;;5.78;;
59880;SDS011;45751;51.380;10.326;2022-08-27T07:33:44;13.52;;;5.50;;
59880;SDS011;45751;51.380;10.326;2022-08-27T07:36:19;9.50;;;4.45;;
59880;SDS011;45751;51.380;10.326;2022-08-27T07:38:47;9.30;;;3.95;;
59880;SDS011;45751;51.380;10.326;2022-08-27T07:41:27;9.40;;;3.75;;
59880;SDS011;45751;51.380;10.326;2022-08-27T07:43:59;9.80;;;3.25;;
59880;SDS011;45751;51.380;10.326;2022-08-27T07:46:46;8.98;;;3.70;;
59880;SDS011;45751;51.380;10.326;2022-08-27T07:49:17;10.60;;;3.88;;
59880;SDS011;45751;51.380;10.326;2022-08-27T07:51:44;10.10;;;4.07;;
59880;SDS011;45751;51.380;10.326;2022-08-27T07:54:12;12.30;;;4.35;;
59880;SDS011;45751;51.380;10.326;2022-08-27T07:56:40;14.20;;;5.65;;
59880;SDS011;45751;51.380;10.326;2022-08-27T07:59:07;13.35;;;4.95;;
59880;SDS011;45751;51.380;10.326;2022-08-27T08:01:34;13.70;;;6.35;;
59880;SDS011;45751;51.380;10.326;2022-08-27T08:04:02;14.20;;;6.45;;
59880;SDS011;45751;51.380;10.326;2022-08-27T08:06:29;16.38;;;6.72;;
59880;SDS011;45751;51.380;10.326;2022-08-27T08:08:57;13.55;;;5.22;;
59880;SDS011;45751;51.380;10.326;2022-08-27T08:11:24;13.63;;;6.10;;
59880;SDS011;45751;51.380;10.326;2022-08-27T08:13:52;14.95;;;5.85;;
59880;SDS011;45751;51.380;10.326;2022-08-27T08:16:18;17.70;;;5.80;;
59880;SDS011;45751;51.380;10.326;2022-08-27T08:18:56;15.52;;;6.22;;
59880;SDS011;45751;51.380;10.326;2022-08-27T08:21:25;16.42;;;6.00;;
59880;SDS011;45751;51.380;10.326;2022-08-27T08:23:52;18.75;;;6.80;;
59880;SDS011;45751;51.380;10.326;2022-08-27T08:26:19;13.68;;;5.80;;
59880;SDS011;45751;51.380;10.326;2022-08-27T08:28:46;16.20;;;6.38;;
59880;SDS011;45751;51.380;10.326;2022-08-27T08:31:13;17.73;;;6.30;;
59880;SDS011;45751;51.380;10.326;2022-08-27T08:33:40;16.55;;;6.68;;
59880;SDS011;45751;51.380;10.326;2022-08-27T08:36:11;17.55;;;6.03;;
59880;SDS011;45751;51.380;10.326;2022-08-27T08:38:40;15.45;;;6.50;;
59880;SDS011;45751;51.380;10.326;2022-08-27T08:43:56;15.32;;;6.75;;
59880;SDS011;45751;51.380;10.326;2022-08-27T08:46:53;15.48;;;6.60;;
59880;SDS011;45751;51.380;10.326;2022-08-27T08:49:28;15.50;;;6.80;;
59880;SDS011;45751;51.380;10.326;2022-08-27T08:52:03;16.20;;;6.95;;
59880;SDS011;45751;51.380;10.326;2022-08-27T08:54:59;15.93;;;7.00;;
59880;SDS011;45751;51.380;10.326;2022-08-27T08:57:38;18.60;;;7.78;;
59880;SDS011;45751;51.380;10.326;2022-08-27T09:00:11;19.65;;;7.45;;
59880;SDS011;45751;51.380;10.326;2022-08-27T09:02:39;19.75;;;9.27;;
59880;SDS011;45751;51.380;10.326;2022-08-27T09:05:20;19.77;;;7.38;;
59880;SDS011;45751;51.380;10.326;2022-08-27T09:07:55;19.33;;;7.63;;
59880;SDS011;45751;51.380;10.326;2022-08-27T09:11:03;15.50;;;7.57;;
59880;SDS011;45751;51.380;10.326;2022-08-27T09:13:47;17.27;;;7.63;;
59880;SDS011;45751;51.380;10.326;2022-08-27T09:18:44;19.08;;;7.97;;
59880;SDS011;45751;51.380;10.326;2022-08-27T09:21:19;20.33;;;8.68;;
59880;SDS011;45751;51.380;10.326;2022-08-27T09:24:17;21.67;;;8.27;;
59880;SDS011;45751;51.380;10.326;2022-08-27T09:26:56;26.85;;;9.45;;
59880;SDS011;45751;51.380;10.326;2022-08-27T09:29:25;18.42;;;8.55;;
59880;SDS011;45751;51.380;10.326;2022-08-27T09:34:21;20.38;;;9.02;;
59880;SDS011;45751;51.380;10.326;2022-08-27T09:36:51;18.23;;;8.80;;
59880;SDS011;45751;51.380;10.326;2022-08-27T09:39:44;21.85;;;9.38;;
59880;SDS011;45751;51.380;10.326;2022-08-27T09:42:26;19.55;;;9.90;;
59880;SDS011;45751;51.380;10.326;2022-08-27T09:45:05;23.45;;;9.45;;
59880;SDS011;45751;51.380;10.326;2022-08-27T09:47:41;21.27;;;9.45;;
59880;SDS011;45751;51.380;10.326;2022-08-27T09:50:15;23.10;;;9.90;;
59880;SDS011;45751;51.380;10.326;2022-08-27T09:58:22;25.67;;;11.00;;
59880;SDS011;45751;51.380;10.326;2022-08-27T10:00:59;21.30;;;9.18;;
59880;SDS011;45751;51.380;10.326;2022-08-27T10:03:29;20.08;;;9.05;;
59880;SDS011;45751;51.380;10.326;2022-08-27T10:05:58;21.17;;;8.82;;
59880;SDS011;45751;51.380;10.326;2022-08-27T10:08:34;22.10;;;9.48;;
59880;SDS011;45751;51.380;10.326;2022-08-27T10:11:06;24.35;;;9.95;;
59880;SDS011;45751;51.380;10.326;2022-08-27T10:13:43;21.10;;;10.07;;
59880;SDS011;45751;51.380;10.326;2022-08-27T10:25:18;21.33;;;8.98;;
59880;SDS011;45751;51.380;10.326;2022-08-27T10:30:20;21.60;;;9.73;;
59880;SDS011;45751;51.380;10.326;2022-08-27T10:33:04;18.70;;;8.45;;
59880;SDS011;45751;51.380;10.326;2022-08-27T10:35:49;21.48;;;9.52;;
59880;SDS011;45751;51.380;10.326;2022-08-27T10:38:46;19.33;;;9.00;;
59880;SDS011;45751;51.380;10.326;2022-08-27T10:41:28;18.08;;;8.68;;
59880;SDS011;45751;51.380;10.326;2022-08-27T10:52:19;18.63;;;8.63;;
59880;SDS011;45751;51.380;10.326;2022-08-27T10:54:59;23.15;;;10.13;;
59880;SDS011;45751;51.380;10.326;2022-08-27T11:00:38;23.15;;;10.18;;
59880;SDS011;45751;51.380;10.326;2022-08-27T11:06:01;34.20;;;16.98;;
59880;SDS011;45751;51.380;10.326;2022-08-27T11:08:37;25.65;;;11.57;;
59880;SDS011;45751;51.380;10.326;2022-08-27T11:11:12;20.95;;;9.27;;
59880;SDS011;45751;51.380;10.326;2022-08-27T11:14:28;18.98;;;9.45;;
59880;SDS011;45751;51.380;10.326;2022-08-27T11:17:02;17.70;;;7.57;;
59880;SDS011;45751;51.380;10.326;2022-08-27T11:19:46;23.88;;;9.82;;
59880;SDS011;45751;51.380;10.326;2022-08-27T11:22:24;23.10;;;9.68;;
59880;SDS011;45751;51.380;10.326;2022-08-27T11:25:02;20.27;;;8.32;;
59880;SDS011;45751;51.380;10.326;2022-08-27T11:27:36;24.85;;;9.88;;
59880;SDS011;45751;51.380;10.326;2022-08-27T11:33:26;24.95;;;9.55;;
59880;SDS011;45751;51.380;10.326;2022-08-27T11:38:24;19.55;;;9.00;;
59880;SDS011;45751;51.380;10.326;2022-08-27T11:41:19;20.08;;;9.25;;
59880;SDS011;45751;51.380;10.326;2022-08-27T11:44:11;19.58;;;8.55;;
59880;SDS011;45751;51.380;10.326;2022-08-27T11:46:45;28.48;;;13.32;;
59880;SDS011;45751;51.380;10.326;2022-08-27T11:49:28;19.95;;;8.95;;
59880;SDS011;45751;51.380;10.326;2022-08-27T11:52:06;19.90;;;9.65;;
59880;SDS011;45751;51.380;10.326;2022-08-27T11:54:50;20.63;;;9.15;;
59880;SDS011;45751;51.380;10.326;2022-08-27T11:57:26;22.45;;;9.73;;
59880;SDS011;45751;51.380;10.326;2022-08-27T12:00:09;24.77;;;11.38;;
59880;SDS011;45751;51.380;10.326;2022-08-27T12:02:58;20.27;;;10.07;;
59880;SDS011;45751;51.380;10.326;2022-08-27T12:05:39;22.70;;;9.90;;
59880;SDS011;45751;51.380;10.326;2022-08-27T12:08:32;24.23;;;10.32;;
59880;SDS011;45751;51.380;10.326;2022-08-27T12:16:32;16.98;;;9.38;;
59880;SDS011;45751;51.380;10.326;2022-08-27T12:22:00;42.17;;;19.60;;
59880;SDS011;45751;51.380;10.326;2022-08-27T12:24:52;21.67;;;9.88;;
59880;SDS011;45751;51.380;10.326;2022-08-27T12:27:25;28.23;;;13.77;;
59880;SDS011;45751;51.380;10.326;2022-08-27T12:29:59;107.90;;;45.13;;
59880;SDS011;45751;51.380;10.326;2022-08-27T12:32:53;50.25;;;22.83;;
59880;SDS011;45751;51.380;10.326;2022-08-27T12:40:57;19.73;;;9.73;;
59880;SDS011;45751;51.380;10.326;2022-08-27T12:43:30;22.02;;;10.02;;
59880;SDS011;45751;51.380;10.326;2022-08-27T12:46:06;21.55;;;9.32;;
59880;SDS011;45751;51.380;10.326;2022-08-27T12:48:43;74.30;;;39.28;;
59880;SDS011;45751;51.380;10.326;2022-08-27T12:51:24;70.47;;;33.25;;
59880;SDS011;45751;51.380;10.326;2022-08-27T12:57:04;21.73;;;9.55;;
59880;SDS011;45751;51.380;10.326;2022-08-27T12:59:48;39.15;;;17.10;;
59880;SDS011;45751;51.380;10.326;2022-08-27T13:05:03;48.17;;;22.23;;
59880;SDS011;45751;51.380;10.326;2022-08-27T13:07:40;39.08;;;19.17;;
59880;SDS011;45751;51.380;10.326;2022-08-27T13:12:44;20.35;;;10.23;;
59880;SDS011;45751;51.380;10.326;2022-08-27T13:15:12;17.33;;;9.32;;
59880;SDS011;45751;51.380;10.326;2022-08-27T13:17:42;18.15;;;9.02;;
59880;SDS011;45751;51.380;10.326;2022-08-27T13:20:19;23.27;;;8.73;;
59880;SDS011;45751;51.380;10.326;2022-08-27T13:22:48;20.15;;;8.07;;
59880;SDS011;45751;51.380;10.326;2022-08-27T13:25:18;16.80;;;8.45;;
59880;SDS011;45751;51.380;10.326;2022-08-27T13:27:53;16.88;;;8.50;;
59880;SDS011;45751;51.380;10.326;2022-08-27T13:30:25;18.58;;;8.93;;
59880;SDS011;45751;51.380;10.326;2022-08-27T13:33:02;23.25;;;9.30;;
59880;SDS011;45751;51.380;10.326;2022-08-27T13:35:31;24.83;;;8.00;;
59880;SDS011;45751;51.380;10.326;2022-08-27T13:37:58;19.45;;;8.20;;
59880;SDS011;45751;51.380;10.326;2022-08-27T13:40:29;21.30;;;9.07;;
59880;SDS011;45751;51.380;10.326;2022-08-27T13:43:16;14.98;;;8.00;;
59880;SDS011;45751;51.380;10.326;2022-08-27T13:45:48;19.13;;;9.93;;
59880;SDS011;45751;51.380;10.326;2022-08-27T13:48:17;19.38;;;8.60;;
59880;SDS011;45751;51.380;10.326;2022-08-27T13:50:50;17.70;;;9.10;;
59880;SDS011;45751;51.380;10.326;2022-08-27T13:53:27;19.17;;;8.63;;
59880;SDS011;45751;51.380;10.326;2022-08-27T13:58:50;17.58;;;8.75;;
59880;SDS011;45751;51.380;10.326;2022-08-27T14:01:25;19.33;;;8.07;;
59880;SDS011;45751;51.380;10.326;2022-08-27T14:06:33;15.73;;;8.38;;
59880;SDS011;45751;51.380;10.326;2022-08-27T14:09:08;18.70;;;8.65;;
59880;SDS011;45751;51.380;10.326;2022-08-27T14:11:48;22.17;;;8.50;;
59880;SDS011;45751;51.380;10.326;2022-08-27T14:14:22;18.98;;;8.65;;
59880;SDS011;45751;51.380;10.326;2022-08-27T14:17:00;17.92;;;8.23;;
59880;SDS011;45751;51.380;10.326;2022-08-27T14:19:29;16.95;;;8.20;;
59880;SDS011;45751;51.380;10.326;2022-08-27T14:22:01;18.48;;;8.05;;
59880;SDS011;45751;51.380;10.326;2022-08-27T14:24:28;19.27;;;8.07;;
59880;SDS011;45751;51.380;10.326;2022-08-27T14:27:03;16.20;;;7.82;;
59880;SDS011;45751;51.380;10.326;2022-08-27T14:29:33;17.30;;;7.95;;
59880;SDS011;45751;51.380;10.326;2022-08-27T14:32:01;15.85;;;7.70;;
59880;SDS011;45751;51.380;10.326;2022-08-27T14:34:28;18.67;;;7.55;;
59880;SDS011;45751;51.380;10.326;2022-08-27T14:36:55;17.05;;;8.13;;
59880;SDS011;45751;51.380;10.326;2022-08-27T14:39:23;19.48;;;8.75;;
59880;SDS011;45751;51.380;10.326;2022-08-27T14:41:52;21.00;;;8.70;;
59880;SDS011;45751;51.380;10.326;2022-08-27T14:44:20;16.38;;;7.82;;
59880;SDS011;45751;51.380;10.326;2022-08-27T14:46:47;17.75;;;8.20;;
59880;SDS011;45751;51.380;10.326;2022-08-27T14:49:15;18.08;;;8.05;;
59880;SDS011;45751;51.380;10.326;2022-08-27T14:51:47;17.63;;;7.38;;
59880;SDS011;45751;51.380;10.326;2022-08-27T14:54:14;15.60;;;8.07;;
59880;SDS011;45751;51.380;10.326;2022-08-27T14:56:41;16.95;;;7.72;;
59880;SDS011;45751;51.380;10.326;2022-08-27T14:59:08;16.60;;;7.55;;
59880;SDS011;45751;51.380;10.326;2022-08-27T15:01:34;15.25;;;7.20;;
59880;SDS011;45751;51.380;10.326;2022-08-27T15:04:03;14.52;;;7.30;;
59880;SDS011;45751;51.380;10.326;2022-08-27T15:06:31;18.33;;;9.43;;
59880;SDS011;45751;51.380;10.326;2022-08-27T15:08:59;14.85;;;7.30;;
59880;SDS011;45751;51.380;10.326;2022-08-27T15:11:27;21.23;;;9.27;;
59880;SDS011;45751;51.380;10.326;2022-08-27T15:13:56;19.17;;;7.75;;
59880;SDS011;45751;51.380;10.326;2022-08-27T15:16:29;15.82;;;7.60;;
59880;SDS011;45751;51.380;10.326;2022-08-27T15:19:02;18.40;;;7.72;;
59880;SDS011;45751;51.380;10.326;2022-08-27T15:21:30;16.77;;;8.25;;
59880;SDS011;45751;51.380;10.326;2022-08-27T15:23:58;13.27;;;7.28;;
59880;SDS011;45751;51.380;10.326;2022-08-27T15:26:27;15.73;;;8.50;;
59880;SDS011;45751;51.380;10.326;2022-08-27T15:28:54;16.33;;;8.15;;
59880;SDS011;45751;51.380;10.326;2022-08-27T15:31:21;17.27;;;7.15;;
59880;SDS011;45751;51.380;10.326;2022-08-27T15:33:48;18.15;;;8.40;;
59880;SDS011;45751;51.380;10.326;2022-08-27T15:36:15;18.42;;;7.68;;
59880;SDS011;45751;51.380;10.326;2022-08-27T15:38:42;17.08;;;7.90;;
59880;SDS011;45751;51.380;10.326;2022-08-27T15:41:09;18.15;;;7.90;;
59880;SDS011;45751;51.380;10.326;2022-08-27T15:43:37;17.05;;;7.97;;
59880;SDS011;45751;51.380;10.326;2022-08-27T15:46:04;15.52;;;8.23;;
59880;SDS011;45751;51.380;10.326;2022-08-27T15:48:32;16.17;;;8.07;;
59880;SDS011;45751;51.380;10.326;2022-08-27T15:51:00;19.25;;;7.93;;
59880;SDS011;45751;51.380;10.326;2022-08-27T15:53:33;15.27;;;6.95;;
59880;SDS011;45751;51.380;10.326;2022-08-27T15:56:00;16.17;;;8.57;;
59880;SDS011;45751;51.380;10.326;2022-08-27T15:58:29;20.63;;;8.75;;
59880;SDS011;45751;51.380;10.326;2022-08-27T16:01:10;16.50;;;8.02;;
59880;SDS011;45751;51.380;10.326;2022-08-27T16:03:40;15.63;;;8.07;;